EKYT/AAL METAR and TAF weather

Enter ICAO airport designator
Station Type Date Time Source
EKYT METAR 2019/04/18 20:20 UTC NOAA

EKYT 182020Z AUTO 05005KT 9999 NCD 10/01 Q1036


Station Type Date Time Source
EKYT Decoded METAR 2019/04/18 20:20 UTC NOAA

Aalborg, Denmark (EKYT) 57-06N 009-51E 13M
Apr 18, 2019 - 04:20 PM EDT / 2019.04.18 2020 UTC
Wind: from the NE (050 degrees) at 6 MPH (5 KT):0
Visibility: greater than 7 mile(s):0
Temperature: 50 F (10 C)
Dew Point: 33 F (1 C)
Relative Humidity: 53%
Pressure (altimeter): 30.59 in. Hg (1036 hPa)
ob: EKYT 182020Z AUTO 05005KT 9999 NCD 10/01 Q1036
cycle: 20

Station Type Date Time Source
EKYT TAF 2019/04/18 21:16 UTC NOAA

TAF EKYT 182005Z 1821/1921 VRB05KT 9999 FEW200

Example: see airport list